createdAt,value
2019-02-07T00:00:47.515Z,23.70
2019-02-07T00:03:14.341Z,21.20
2019-02-07T00:05:41.281Z,24.63
2019-02-07T00:08:08.155Z,28.60
2019-02-07T00:10:35.389Z,22.63
2019-02-07T00:13:02.203Z,25.93
2019-02-07T00:15:29.091Z,25.83
2019-02-07T00:17:56.204Z,23.53
2019-02-07T00:20:23.316Z,22.40
2019-02-07T00:22:50.208Z,25.57
2019-02-07T00:25:17.018Z,24.83
2019-02-07T00:27:44.001Z,22.10
2019-02-07T00:30:12.136Z,23.80
2019-02-07T00:32:39.100Z,21.20
2019-02-07T00:35:06.663Z,18.73
2019-02-07T00:37:33.613Z,18.50
2019-02-07T00:40:00.582Z,20.83
2019-02-07T00:42:27.696Z,20.77
2019-02-07T00:44:54.991Z,25.93
2019-02-07T00:47:22.228Z,21.60
2019-02-07T00:49:49.074Z,19.80
2019-02-07T00:52:16.032Z,21.27
2019-02-07T00:54:42.984Z,23.00
2019-02-07T00:57:09.873Z,17.27
2019-02-07T00:59:36.823Z,23.20
2019-02-07T01:02:03.939Z,23.80
2019-02-07T01:04:31.612Z,25.27
2019-02-07T01:07:00.623Z,22.00
2019-02-07T01:09:27.570Z,22.20
2019-02-07T01:11:54.659Z,22.13
2019-02-07T01:14:21.588Z,23.93
2019-02-07T01:16:48.407Z,21.63
2019-02-07T01:19:15.289Z,21.70
2019-02-07T01:21:42.785Z,23.60
2019-02-07T01:24:09.911Z,25.13
2019-02-07T01:26:36.736Z,21.27
2019-02-07T01:29:03.704Z,19.43
2019-02-07T01:31:30.585Z,17.60
2019-02-07T01:33:57.552Z,26.93
2019-02-07T01:36:24.462Z,29.03
2019-02-07T01:38:51.431Z,20.37
2019-02-07T01:41:18.611Z,20.30
2019-02-07T01:43:45.488Z,20.10
2019-02-07T01:46:12.400Z,20.30
2019-02-07T01:48:39.782Z,20.33
2019-02-07T01:51:06.838Z,21.87
2019-02-07T01:53:33.827Z,21.23
2019-02-07T01:56:00.667Z,22.57
2019-02-07T01:58:27.643Z,20.60
2019-02-07T02:00:54.864Z,23.50
2019-02-07T02:03:21.833Z,23.67
2019-02-07T02:05:48.680Z,21.63
2019-02-07T02:08:15.540Z,20.13
2019-02-07T02:10:42.367Z,23.97
2019-02-07T02:13:09.323Z,20.93
2019-02-07T02:15:36.149Z,26.80
2019-02-07T02:18:03.582Z,22.57
2019-02-07T02:20:30.631Z,21.93
2019-02-07T02:22:57.504Z,21.37
2019-02-07T02:25:24.378Z,21.20
2019-02-07T02:27:51.387Z,20.90
2019-02-07T02:30:20.435Z,19.57
2019-02-07T02:32:47.303Z,20.50
2019-02-07T02:35:14.321Z,21.03
2019-02-07T02:37:41.522Z,22.10
2019-02-07T02:40:08.575Z,19.23
2019-02-07T02:42:35.459Z,17.03
2019-02-07T02:45:03.238Z,19.23
2019-02-07T02:47:31.127Z,17.23
2019-02-07T02:49:57.998Z,16.27
2019-02-07T02:52:24.804Z,18.30
2019-02-07T02:54:53.486Z,22.97
2019-02-07T02:57:20.526Z,18.93
2019-02-07T02:59:47.420Z,21.53
2019-02-07T03:02:33.257Z,18.37
2019-02-07T03:05:19.866Z,18.70
2019-02-07T03:08:08.646Z,20.93
2019-02-07T03:10:47.211Z,17.77
2019-02-07T03:13:23.976Z,21.63
2019-02-07T03:16:00.971Z,22.23
2019-02-07T03:18:46.530Z,16.83
2019-02-07T03:21:32.138Z,20.70
2019-02-07T03:24:16.126Z,17.20
2019-02-07T03:27:07.795Z,17.43
2019-02-07T03:29:53.128Z,16.20
2019-02-07T03:32:38.262Z,15.73
2019-02-07T03:35:30.508Z,16.63
2019-02-07T03:38:10.789Z,21.47
2019-02-07T03:40:45.932Z,27.33
2019-02-07T03:43:27.982Z,21.77
2019-02-07T03:46:14.607Z,17.43
2019-02-07T03:48:52.597Z,20.80
2019-02-07T03:51:31.107Z,23.93
2019-02-07T03:54:20.280Z,21.13
2019-02-07T03:57:05.759Z,21.80
2019-02-07T03:59:54.975Z,20.10
2019-02-07T04:02:35.104Z,22.33
2019-02-07T04:05:24.704Z,22.07
2019-02-07T04:08:10.139Z,21.17
2019-02-07T04:11:03.129Z,26.10
2019-02-07T04:13:48.292Z,19.67
2019-02-07T04:16:33.741Z,20.83
2019-02-07T04:19:38.472Z,21.07
2019-02-07T04:22:24.097Z,20.10
2019-02-07T04:25:10.784Z,20.40
2019-02-07T04:27:48.097Z,23.83
2019-02-07T04:30:36.430Z,21.13
2019-02-07T04:33:21.549Z,19.37
2019-02-07T04:36:12.369Z,21.43
2019-02-07T04:38:48.551Z,20.50
2019-02-07T04:41:44.155Z,23.33
2019-02-07T04:44:38.317Z,25.43
2019-02-07T04:47:15.351Z,17.27
2019-02-07T04:50:01.929Z,21.23
2019-02-07T04:52:48.665Z,19.53
2019-02-07T04:55:29.933Z,20.80
2019-02-07T04:58:18.204Z,20.93
2019-02-07T05:01:01.836Z,20.90
2019-02-07T05:03:56.036Z,20.33
2019-02-07T05:06:39.316Z,18.33
2019-02-07T05:09:31.067Z,18.93
2019-02-07T05:12:13.756Z,20.90
2019-02-07T05:15:04.185Z,18.63
2019-02-07T05:17:53.690Z,19.87
2019-02-07T05:20:39.193Z,24.53
2019-02-07T05:23:28.391Z,20.37
2019-02-07T05:26:27.168Z,22.30
2019-02-07T05:29:08.464Z,21.47
2019-02-07T05:31:50.263Z,18.93
2019-02-07T05:34:35.389Z,24.63
2019-02-07T05:37:24.627Z,17.23
2019-02-07T05:39:59.875Z,21.30
2019-02-07T05:42:45.841Z,18.83
2019-02-07T05:45:32.740Z,23.73
2019-02-07T05:48:34.577Z,20.57
2019-02-07T05:51:11.932Z,20.97
2019-02-07T05:53:48.511Z,19.07
2019-02-07T05:56:32.548Z,18.60
2019-02-07T05:59:24.799Z,21.00
2019-02-07T06:02:14.658Z,21.20
2019-02-07T06:04:48.900Z,17.57
2019-02-07T06:07:34.040Z,19.67
2019-02-07T06:10:30.610Z,16.97
2019-02-07T06:13:15.789Z,20.93
2019-02-07T06:15:52.315Z,17.63
2019-02-07T06:18:37.411Z,27.03
2019-02-07T06:21:29.254Z,17.20
2019-02-07T06:24:06.825Z,18.77
2019-02-07T06:26:45.058Z,16.07
2019-02-07T06:29:23.939Z,20.00
2019-02-07T06:32:17.819Z,22.20
2019-02-07T06:35:02.865Z,21.33
2019-02-07T06:37:46.648Z,19.93
2019-02-07T06:40:24.076Z,16.93
2019-02-07T06:43:10.093Z,23.30
2019-02-07T06:45:55.891Z,22.00
2019-02-07T06:48:54.234Z,18.37
2019-02-07T06:51:29.340Z,21.60
2019-02-07T06:54:05.387Z,31.53
2019-02-07T06:56:43.512Z,25.00
2019-02-07T06:59:48.032Z,20.50
2019-02-07T07:02:30.102Z,27.50
2019-02-07T07:05:22.288Z,26.47
2019-02-07T07:08:19.100Z,22.30
2019-02-07T07:10:55.658Z,25.10
2019-02-07T07:13:43.695Z,21.70
2019-02-07T07:16:28.949Z,22.67
2019-02-07T07:19:33.605Z,22.00
2019-02-07T07:22:16.339Z,26.10
2019-02-07T07:25:01.353Z,27.47
2019-02-07T07:27:37.084Z,21.30
2019-02-07T07:30:16.017Z,23.70
2019-02-07T07:32:51.636Z,24.07
2019-02-07T07:35:38.316Z,26.17
2019-02-07T07:38:23.540Z,25.80
2019-02-07T07:41:10.133Z,30.33
2019-02-07T07:44:05.457Z,25.60
2019-02-07T07:46:50.755Z,29.33
2019-02-07T07:49:32.853Z,23.47
2019-02-07T07:52:22.809Z,23.77
2019-02-07T07:55:15.404Z,35.00
2019-02-07T07:58:04.709Z,44.20
2019-02-07T08:00:52.851Z,24.43
2019-02-07T08:03:34.449Z,26.80
2019-02-07T08:06:22.483Z,34.03
2019-02-07T08:08:56.576Z,25.63
2019-02-07T08:11:33.477Z,28.33
2019-02-07T08:14:08.468Z,33.63
2019-02-07T08:17:01.812Z,31.63
2019-02-07T08:19:46.558Z,25.90
2019-02-07T08:22:42.435Z,24.60
2019-02-07T08:25:37.898Z,28.30
2019-02-07T08:28:17.828Z,28.07
2019-02-07T08:30:50.925Z,29.27
2019-02-07T08:33:43.433Z,28.10
2019-02-07T08:36:19.941Z,24.00
2019-02-07T08:38:59.221Z,25.17
2019-02-07T08:41:49.060Z,32.57
2019-02-07T08:44:44.767Z,28.53
2019-02-07T08:47:33.832Z,28.73
2019-02-07T08:50:13.880Z,27.80
2019-02-07T08:52:59.360Z,33.27
2019-02-07T08:55:44.571Z,24.53
2019-02-07T08:58:43.192Z,27.73
2019-02-07T09:01:35.753Z,29.40
2019-02-07T09:04:21.149Z,23.70
2019-02-07T09:07:15.568Z,27.40
2019-02-07T09:10:01.102Z,25.17
2019-02-07T09:12:55.076Z,28.50
2019-02-07T09:15:43.869Z,26.63
2019-02-07T09:18:29.048Z,25.83
2019-02-07T09:21:09.778Z,28.47
2019-02-07T09:24:03.159Z,27.30
2019-02-07T09:26:37.871Z,29.90
2019-02-07T09:29:21.997Z,23.93
2019-02-07T09:32:17.475Z,27.37
2019-02-07T09:35:04.311Z,28.47
2019-02-07T09:38:00.014Z,27.40
2019-02-07T09:40:45.635Z,26.83
2019-02-07T09:43:27.893Z,29.93
2019-02-07T09:46:12.676Z,29.40
2019-02-07T09:48:58.158Z,29.43
2019-02-07T09:51:39.819Z,26.13
2019-02-07T09:54:25.516Z,29.73
2019-02-07T09:57:08.149Z,27.20
2019-02-07T09:59:53.389Z,31.30
2019-02-07T10:02:33.465Z,31.13
2019-02-07T10:05:09.413Z,28.90
2019-02-07T10:08:10.883Z,30.90
2019-02-07T10:10:44.252Z,31.70
2019-02-07T10:13:40.307Z,28.37
2019-02-07T10:16:34.277Z,28.63
2019-02-07T10:19:19.681Z,33.20
2019-02-07T10:22:05.198Z,23.13
2019-02-07T10:24:57.204Z,31.80
2019-02-07T10:27:55.491Z,28.83
2019-02-07T10:30:44.981Z,26.53
2019-02-07T10:33:40.664Z,30.80
2019-02-07T10:36:26.008Z,26.60
2019-02-07T10:39:24.658Z,23.83
2019-02-07T10:42:19.399Z,26.77
2019-02-07T10:45:04.699Z,30.63
2019-02-07T10:47:49.750Z,27.40
2019-02-07T10:50:41.644Z,26.00
2019-02-07T10:53:43.287Z,31.20
2019-02-07T10:56:33.044Z,33.37
2019-02-07T10:59:19.748Z,24.90
2019-02-07T11:02:09.345Z,27.70
2019-02-07T11:04:55.884Z,29.83
2019-02-07T11:07:46.908Z,29.37
2019-02-07T11:10:51.507Z,21.17
2019-02-07T11:13:40.939Z,24.23
2019-02-07T11:16:26.065Z,23.60
2019-02-07T11:19:04.263Z,25.10
2019-02-07T11:21:56.771Z,27.03
2019-02-07T11:24:42.412Z,22.50
2019-02-07T11:27:27.696Z,22.33
2019-02-07T11:30:04.175Z,22.63
2019-02-07T11:32:40.834Z,28.07
2019-02-07T11:35:18.196Z,26.80
2019-02-07T11:38:03.199Z,23.70
2019-02-07T11:40:52.888Z,21.30
2019-02-07T11:43:45.690Z,23.43
2019-02-07T11:46:23.126Z,19.77
2019-02-07T11:49:16.236Z,24.47
2019-02-07T11:52:13.127Z,21.73
2019-02-07T11:55:02.229Z,22.07
2019-02-07T11:57:38.461Z,19.90
2019-02-07T12:00:33.680Z,20.00
2019-02-07T12:03:18.828Z,19.67
2019-02-07T12:06:11.325Z,23.67
2019-02-07T12:08:46.803Z,19.83
2019-02-07T12:11:35.580Z,21.60
2019-02-07T12:14:16.935Z,28.13
2019-02-07T12:17:02.535Z,22.40
2019-02-07T12:19:47.612Z,24.80
2019-02-07T12:22:45.403Z,18.70
2019-02-07T12:25:31.246Z,22.00
2019-02-07T12:28:09.076Z,21.90
2019-02-07T12:31:03.675Z,21.00
2019-02-07T12:33:38.499Z,20.40
2019-02-07T12:36:25.108Z,22.63
2019-02-07T12:39:11.160Z,18.30
2019-02-07T12:41:55.972Z,19.80
2019-02-07T12:44:45.588Z,18.90
2019-02-07T12:47:29.239Z,17.13
2019-02-07T12:50:09.688Z,17.77
2019-02-07T12:52:51.933Z,15.10
2019-02-07T12:55:37.162Z,18.20
2019-02-07T12:58:12.179Z,18.33
2019-02-07T13:00:58.512Z,18.30
2019-02-07T13:03:48.015Z,19.33
2019-02-07T13:06:27.168Z,23.80
2019-02-07T13:09:19.508Z,22.00
2019-02-07T13:12:01.429Z,21.27
2019-02-07T13:14:48.063Z,20.70
2019-02-07T13:17:34.911Z,20.37
2019-02-07T13:20:11.061Z,18.87
2019-02-07T13:22:54.143Z,21.63
2019-02-07T13:25:38.783Z,18.53
2019-02-07T13:28:33.687Z,19.20
2019-02-07T13:31:23.085Z,17.43
2019-02-07T13:34:01.587Z,19.70
2019-02-07T13:36:41.993Z,17.43
2019-02-07T13:39:43.543Z,19.20
2019-02-07T13:42:18.515Z,17.83
2019-02-07T13:45:05.219Z,23.20
2019-02-07T13:47:56.257Z,20.60
2019-02-07T13:50:41.216Z,24.10
2019-02-07T13:53:26.656Z,22.10
2019-02-07T13:56:03.896Z,22.33
2019-02-07T13:58:49.440Z,26.40
2019-02-07T14:01:30.964Z,16.90
2019-02-07T14:04:15.160Z,18.07
2019-02-07T14:07:00.583Z,23.43
2019-02-07T14:09:46.453Z,23.67
2019-02-07T14:12:35.407Z,22.60
2019-02-07T14:15:12.063Z,20.00
2019-02-07T14:17:58.937Z,21.70
2019-02-07T14:20:44.491Z,18.57
2019-02-07T14:23:31.508Z,20.37
2019-02-07T14:26:21.019Z,22.93
2019-02-07T14:28:56.541Z,21.43
2019-02-07T14:31:51.937Z,20.70
2019-02-07T14:34:32.418Z,26.30
2019-02-07T14:37:19.437Z,25.27
2019-02-07T14:40:00.482Z,22.73
2019-02-07T14:42:47.423Z,23.47
2019-02-07T14:45:32.624Z,26.70
2019-02-07T14:47:59.432Z,23.13
2019-02-07T14:50:27.015Z,21.13
2019-02-07T14:52:53.898Z,24.73
2019-02-07T14:55:21.201Z,26.83
2019-02-07T14:57:48.086Z,20.80
2019-02-07T15:00:16.691Z,24.10
2019-02-07T15:02:43.576Z,18.27
2019-02-07T15:05:10.660Z,19.40
2019-02-07T15:07:37.500Z,29.10
2019-02-07T15:10:05.181Z,22.60
2019-02-07T15:12:32.001Z,24.00
2019-02-07T15:14:58.831Z,21.37
2019-02-07T15:17:25.779Z,21.53
2019-02-07T15:19:52.600Z,22.83
2019-02-07T15:22:19.520Z,21.40
2019-02-07T15:24:46.413Z,20.60
2019-02-07T15:27:13.362Z,19.80
2019-02-07T15:29:40.388Z,17.80
2019-02-07T15:32:07.559Z,16.87
2019-02-07T15:34:34.685Z,15.77
2019-02-07T15:37:01.630Z,18.03
2019-02-07T15:39:28.705Z,14.77
2019-02-07T15:41:55.816Z,16.57
2019-02-07T15:44:22.799Z,19.70
2019-02-07T15:46:49.659Z,16.73
2019-02-07T15:49:16.913Z,18.10
2019-02-07T15:51:45.176Z,19.20
2019-02-07T15:54:12.128Z,16.27
2019-02-07T15:56:39.081Z,18.97
2019-02-07T15:59:24.610Z,18.87
2019-02-07T16:01:58.603Z,18.23
2019-02-07T16:04:28.338Z,19.00
2019-02-07T16:06:55.239Z,17.47
2019-02-07T16:09:22.456Z,18.80
2019-02-07T16:11:51.805Z,19.50
2019-02-07T16:14:18.120Z,17.90
2019-02-07T16:16:45.044Z,18.23
2019-02-07T16:19:11.904Z,19.10
2019-02-07T16:21:38.848Z,20.87
2019-02-07T16:24:06.126Z,21.10
2019-02-07T16:26:33.222Z,21.87
2019-02-07T16:29:00.098Z,30.63
2019-02-07T16:31:27.160Z,18.77
2019-02-07T16:33:54.133Z,22.63
2019-02-07T16:36:21.299Z,24.50
2019-02-07T16:38:48.520Z,19.93
2019-02-07T16:41:15.447Z,23.60
2019-02-07T16:43:42.365Z,20.40
2019-02-07T16:46:09.520Z,21.13
2019-02-07T16:48:36.468Z,20.70
2019-02-07T16:51:03.569Z,27.10
2019-02-07T16:53:30.465Z,20.50
2019-02-07T16:55:57.301Z,22.67
2019-02-07T16:58:24.160Z,26.33
2019-02-07T17:00:51.167Z,26.43
2019-02-07T17:03:19.428Z,21.90
2019-02-07T17:05:46.612Z,26.70
2019-02-07T17:08:13.479Z,24.83
2019-02-07T17:10:40.596Z,25.00
2019-02-07T17:13:07.704Z,25.10
2019-02-07T17:15:35.216Z,20.17
2019-02-07T17:18:02.189Z,21.50
2019-02-07T17:20:29.095Z,24.07
2019-02-07T17:22:56.043Z,23.90
2019-02-07T17:25:23.328Z,23.33
2019-02-07T17:27:50.335Z,23.20
2019-02-07T17:30:17.291Z,24.97
2019-02-07T17:32:44.592Z,25.43
2019-02-07T17:35:11.559Z,29.20
2019-02-07T17:37:38.465Z,28.23
2019-02-07T17:40:07.111Z,22.87
2019-02-07T17:42:34.117Z,25.83
2019-02-07T17:45:01.032Z,27.40
2019-02-07T17:47:27.993Z,25.13
2019-02-07T17:49:54.803Z,25.80
2019-02-07T17:52:22.079Z,23.47
2019-02-07T17:54:49.101Z,28.03
2019-02-07T17:57:17.225Z,26.17
2019-02-07T17:59:44.256Z,27.40
2019-02-07T18:02:13.389Z,27.70
2019-02-07T18:04:40.388Z,23.90
2019-02-07T18:07:07.415Z,31.83
2019-02-07T18:09:34.309Z,30.33
2019-02-07T18:12:01.227Z,30.40
2019-02-07T18:14:28.136Z,27.23
2019-02-07T18:16:55.291Z,25.30
2019-02-07T18:19:22.269Z,24.70
2019-02-07T18:21:49.079Z,28.90
2019-02-07T18:24:16.160Z,27.60
2019-02-07T18:26:43.039Z,28.33
2019-02-07T18:29:10.374Z,25.90
2019-02-07T18:31:37.292Z,25.97
2019-02-07T18:34:04.213Z,28.10
2019-02-07T18:36:31.086Z,25.60
2019-02-07T18:38:58.283Z,29.17
2019-02-07T18:41:25.191Z,27.83
2019-02-07T18:43:52.006Z,28.20
2019-02-07T18:46:18.941Z,29.23
2019-02-07T18:48:46.244Z,28.60
2019-02-07T18:51:13.125Z,35.03
2019-02-07T18:53:40.085Z,32.50
2019-02-07T18:56:07.041Z,30.20
2019-02-07T18:58:33.957Z,27.30
2019-02-07T19:01:01.003Z,30.37
2019-02-07T19:03:27.910Z,27.10
2019-02-07T19:05:54.805Z,31.53
2019-02-07T19:08:23.114Z,42.17
2019-02-07T19:10:50.041Z,33.13
2019-02-07T19:13:16.919Z,34.27
2019-02-07T19:15:48.645Z,31.13
2019-02-07T19:18:15.555Z,32.50
2019-02-07T19:20:42.464Z,34.63
2019-02-07T19:23:09.382Z,33.90
2019-02-07T19:25:36.663Z,33.00
2019-02-07T19:28:04.434Z,36.47
2019-02-07T19:30:31.388Z,32.47
2019-02-07T19:32:58.577Z,33.87
2019-02-07T19:35:25.560Z,29.07
2019-02-07T19:37:52.513Z,34.63
2019-02-07T19:40:19.457Z,37.40
2019-02-07T19:42:46.367Z,38.53
2019-02-07T19:45:14.174Z,39.50
2019-02-07T19:47:41.159Z,31.60
2019-02-07T19:50:09.322Z,41.30
2019-02-07T19:52:36.434Z,37.93
2019-02-07T19:55:05.785Z,35.33
2019-02-07T19:57:32.659Z,38.97
2019-02-07T19:59:59.586Z,34.97
2019-02-07T20:02:26.860Z,33.53
2019-02-07T20:04:53.736Z,38.00
2019-02-07T20:07:20.955Z,35.00
2019-02-07T20:09:47.817Z,36.40
2019-02-07T20:12:14.674Z,39.10
2019-02-07T20:14:41.536Z,41.47
2019-02-07T20:17:08.506Z,37.10
2019-02-07T20:19:35.459Z,44.83
2019-02-07T20:22:02.431Z,43.73
2019-02-07T20:24:29.492Z,38.83
2019-02-07T20:26:56.323Z,42.13
2019-02-07T20:29:23.232Z,41.80
2019-02-07T20:31:50.173Z,46.50
2019-02-07T20:34:17.181Z,40.47
2019-02-07T20:36:44.029Z,37.20
2019-02-07T20:39:11.036Z,47.37
2019-02-07T20:41:37.996Z,37.43
2019-02-07T20:44:06.026Z,43.70
2019-02-07T20:46:33.115Z,39.20
2019-02-07T20:48:59.964Z,39.73
2019-02-07T20:51:26.936Z,41.73
2019-02-07T20:53:53.788Z,41.30
2019-02-07T20:56:20.709Z,39.57
2019-02-07T20:58:47.609Z,42.57
2019-02-07T21:01:14.521Z,44.30
2019-02-07T21:03:41.427Z,41.07
2019-02-07T21:06:09.036Z,44.13
2019-02-07T21:08:35.937Z,47.70
2019-02-07T21:11:03.057Z,42.63
2019-02-07T21:13:30.090Z,40.87
2019-02-07T21:15:56.985Z,41.80
2019-02-07T21:18:23.897Z,50.30
2019-02-07T21:20:50.910Z,38.60
2019-02-07T21:23:17.829Z,39.73
2019-02-07T21:25:46.083Z,42.13
2019-02-07T21:28:13.118Z,62.13
2019-02-07T21:30:39.960Z,46.40
2019-02-07T21:33:07.086Z,36.73
2019-02-07T21:35:34.166Z,48.10
2019-02-07T21:38:01.281Z,49.17
2019-02-07T21:40:28.613Z,52.30
2019-02-07T21:42:55.987Z,40.40
2019-02-07T21:45:22.975Z,41.90
2019-02-07T21:47:50.502Z,39.47
2019-02-07T21:50:19.333Z,40.83
2019-02-07T21:52:46.192Z,40.00
2019-02-07T21:55:14.216Z,47.23
2019-02-07T21:57:41.225Z,34.40
2019-02-07T22:00:12.621Z,35.63
2019-02-07T22:02:39.785Z,45.77
2019-02-07T22:05:07.210Z,41.90
2019-02-07T22:07:34.209Z,46.67
2019-02-07T22:10:01.123Z,39.83
2019-02-07T22:12:27.983Z,48.37
2019-02-07T22:14:54.831Z,40.63
2019-02-07T22:17:21.716Z,36.93
2019-02-07T22:19:49.048Z,37.57
2019-02-07T22:22:16.033Z,49.17
2019-02-07T22:24:43.228Z,38.93
2019-02-07T22:27:10.112Z,43.53
2019-02-07T22:29:38.692Z,41.53
2019-02-07T22:32:05.539Z,36.43
2019-02-07T22:34:33.118Z,50.37
2019-02-07T22:37:00.150Z,39.97
2019-02-07T22:39:27.092Z,38.03
2019-02-07T22:41:54.319Z,44.60
2019-02-07T22:44:23.032Z,42.10
2019-02-07T22:46:49.989Z,37.63
2019-02-07T22:49:17.307Z,38.50
2019-02-07T22:51:44.281Z,39.10
2019-02-07T22:54:11.195Z,40.43
2019-02-07T22:56:45.079Z,43.97
2019-02-07T22:59:06.842Z,39.33
2019-02-07T23:01:39.303Z,46.10
2019-02-07T23:04:06.836Z,41.30
2019-02-07T23:06:33.703Z,40.40
2019-02-07T23:09:00.759Z,40.67
2019-02-07T23:11:28.110Z,41.10
2019-02-07T23:13:55.048Z,37.17
2019-02-07T23:16:22.112Z,42.93
2019-02-07T23:18:49.044Z,38.13
2019-02-07T23:21:15.964Z,38.97
2019-02-07T23:23:43.207Z,48.80
2019-02-07T23:26:10.096Z,42.87
2019-02-07T23:28:36.977Z,41.63
2019-02-07T23:31:05.121Z,42.53
2019-02-07T23:33:32.370Z,42.87
2019-02-07T23:36:00.133Z,42.10
2019-02-07T23:38:27.701Z,41.70
2019-02-07T23:40:54.737Z,48.03
2019-02-07T23:43:21.682Z,48.10
2019-02-07T23:45:48.784Z,35.50
2019-02-07T23:48:15.808Z,38.93
2019-02-07T23:50:42.788Z,37.20
2019-02-07T23:53:14.804Z,37.67
2019-02-07T23:55:38.786Z,38.73
2019-02-07T23:58:05.884Z,41.70
